createdAt,value
2018-11-25T00:01:27.153Z,9.67
2018-11-25T00:03:57.972Z,9.63
2018-11-25T00:06:28.737Z,9.93
2018-11-25T00:08:55.830Z,9.80
2018-11-25T00:11:44.379Z,10.07
2018-11-25T00:14:15.472Z,9.70
2018-11-25T00:16:44.867Z,10.50
2018-11-25T00:19:33.391Z,11.23
2018-11-25T00:22:02.799Z,10.17
2018-11-25T00:24:54.544Z,10.67
2018-11-25T00:27:26.371Z,9.77
2018-11-25T00:30:16.946Z,10.83
2018-11-25T00:32:48.421Z,9.47
2018-11-25T00:35:17.686Z,10.27
2018-11-25T00:37:48.618Z,10.77
2018-11-25T00:40:35.079Z,10.20
2018-11-25T00:43:04.114Z,9.60
2018-11-25T00:45:33.023Z,10.00
2018-11-25T00:48:21.494Z,10.20
2018-11-25T00:56:26.730Z,10.57
2018-11-25T00:58:55.638Z,10.57
2018-11-25T01:01:44.140Z,9.93
2018-11-25T01:04:13.152Z,9.13
2018-11-25T01:06:42.053Z,10.20
2018-11-25T01:09:11.338Z,9.90
2018-11-25T01:11:52.634Z,10.90
2018-11-25T01:14:33.308Z,11.00
2018-11-25T01:17:04.596Z,10.60
2018-11-25T01:19:33.568Z,10.70
2018-11-25T01:22:22.040Z,11.07
2018-11-25T01:24:51.029Z,11.53
2018-11-25T01:27:20.341Z,11.53
2018-11-25T01:29:49.303Z,11.40
2018-11-25T01:32:37.858Z,11.43
2018-11-25T01:35:08.550Z,11.97
2018-11-25T01:37:37.465Z,11.07
2018-11-25T01:40:26.056Z,11.30
2018-11-25T01:42:54.978Z,11.50
2018-11-25T01:45:23.954Z,11.50
2018-11-25T01:47:52.864Z,11.57
2018-11-25T01:50:22.304Z,10.97
2018-11-25T01:52:51.266Z,11.13
2018-11-25T01:55:39.718Z,12.63
2018-11-25T01:58:08.706Z,12.10
2018-11-25T02:00:37.732Z,11.87
2018-11-25T02:03:07.331Z,12.77
2018-11-25T02:05:55.812Z,12.93
2018-11-25T02:08:24.788Z,12.23
2018-11-25T02:10:54.001Z,12.23
2018-11-25T02:13:42.846Z,13.90
2018-11-25T02:16:12.184Z,14.50
2018-11-25T02:18:41.094Z,13.57
2018-11-25T02:21:12.993Z,14.13
2018-11-25T02:24:01.778Z,14.37
2018-11-25T02:26:31.151Z,13.97
2018-11-25T02:29:00.101Z,14.70
2018-11-25T02:31:49.015Z,14.53
2018-11-25T02:34:18.408Z,15.27
2018-11-25T02:36:47.700Z,14.33
2018-11-25T02:39:17.099Z,14.80
2018-11-25T02:42:06.027Z,15.50
2018-11-25T02:44:35.364Z,14.40
2018-11-25T02:47:04.712Z,14.23
2018-11-25T02:49:53.209Z,15.53
2018-11-25T02:52:22.744Z,14.63
2018-11-25T02:54:51.704Z,15.40
2018-11-25T02:57:39.807Z,17.07
2018-11-25T03:00:11.891Z,16.43
2018-11-25T03:02:41.335Z,16.30
2018-11-25T03:05:10.238Z,14.13
2018-11-25T03:07:58.760Z,15.87
2018-11-25T03:10:28.087Z,14.70
2018-11-25T03:12:57.402Z,15.67
2018-11-25T03:15:26.297Z,17.13
2018-11-25T03:18:14.827Z,15.13
2018-11-25T03:20:44.123Z,14.40
2018-11-25T03:23:13.105Z,14.67
2018-11-25T03:25:42.343Z,14.37
2018-11-25T03:28:31.178Z,14.70
2018-11-25T03:31:00.649Z,13.90
2018-11-25T03:33:29.586Z,13.77
2018-11-25T03:36:18.401Z,13.73
2018-11-25T03:38:47.761Z,14.00
2018-11-25T03:41:16.724Z,13.60
2018-11-25T03:43:46.073Z,13.87
2018-11-25T03:46:34.530Z,12.97
2018-11-25T03:49:03.460Z,11.83
2018-11-25T03:51:32.785Z,12.60
2018-11-25T03:54:01.677Z,12.60
2018-11-25T03:56:50.533Z,11.83
2018-11-25T03:59:21.819Z,10.23
2018-11-25T04:01:51.197Z,11.63
2018-11-25T04:04:40.104Z,10.90
2018-11-25T04:07:28.053Z,10.90
2018-11-25T04:09:56.991Z,10.80
2018-11-25T04:12:45.499Z,10.30
2018-11-25T04:15:34.469Z,10.33
2018-11-25T04:18:03.492Z,11.77
2018-11-25T04:20:51.697Z,11.57
2018-11-25T04:23:20.678Z,11.57
2018-11-25T04:25:50.039Z,10.87
2018-11-25T04:28:38.507Z,10.70
2018-11-25T04:31:27.091Z,9.87
2018-11-25T04:33:56.032Z,11.13
2018-11-25T04:36:44.217Z,11.00
2018-11-25T04:39:13.641Z,10.80
2018-11-25T04:41:42.571Z,11.87
2018-11-25T04:44:31.404Z,10.93
2018-11-25T04:47:00.451Z,10.33
2018-11-25T04:49:31.575Z,11.47
2018-11-25T04:52:00.568Z,12.53
2018-11-25T04:54:49.518Z,11.80
2018-11-25T04:57:18.446Z,12.50
2018-11-25T04:59:47.385Z,12.53
2018-11-25T05:02:16.772Z,13.47
2018-11-25T05:05:06.215Z,13.37
2018-11-25T05:07:35.179Z,13.60
2018-11-25T05:10:04.407Z,13.27
2018-11-25T05:12:33.740Z,12.77
2018-11-25T05:15:22.498Z,13.30
2018-11-25T05:17:51.988Z,12.37
2018-11-25T05:20:21.763Z,12.83
2018-11-25T05:23:10.586Z,12.33
2018-11-25T05:25:39.951Z,11.80
2018-11-25T05:28:09.289Z,13.27
2018-11-25T05:30:38.583Z,12.80
2018-11-25T05:33:20.170Z,12.63
2018-11-25T05:36:01.453Z,12.63
2018-11-25T05:38:30.372Z,13.23
2018-11-25T05:40:59.707Z,13.63
2018-11-25T05:43:48.191Z,13.83
2018-11-25T05:46:17.241Z,12.83
2018-11-25T05:48:46.578Z,12.90
2018-11-25T05:51:15.485Z,13.60
2018-11-25T05:54:03.974Z,12.73
2018-11-25T05:56:33.413Z,12.97
2018-11-25T05:59:02.326Z,13.33
2018-11-25T06:01:32.463Z,13.60
2018-11-25T06:04:21.385Z,13.57
2018-11-25T06:06:50.400Z,13.07
2018-11-25T06:09:19.286Z,14.27
2018-11-25T06:12:07.775Z,13.00
2018-11-25T06:14:37.169Z,12.50
2018-11-25T06:17:06.576Z,13.23
2018-11-25T06:19:37.832Z,13.20
2018-11-25T06:22:26.319Z,13.27
2018-11-25T06:24:55.428Z,12.50
2018-11-25T06:27:24.686Z,12.90
2018-11-25T06:30:35.339Z,12.90
2018-11-25T06:33:07.097Z,11.93
2018-11-25T06:35:36.072Z,12.90
2018-11-25T06:38:24.520Z,12.63
2018-11-25T06:40:53.899Z,11.83
2018-11-25T06:43:22.892Z,12.30
2018-11-25T06:45:51.805Z,12.37
2018-11-25T06:48:40.660Z,12.13
2018-11-25T06:51:09.731Z,11.90
2018-11-25T06:53:45.203Z,11.53
2018-11-25T06:56:19.077Z,11.67
2018-11-25T06:58:48.411Z,12.90
2018-11-25T07:01:17.666Z,12.13
2018-11-25T07:04:06.152Z,12.70
2018-11-25T07:06:35.249Z,12.27
2018-11-25T07:09:05.378Z,13.27
2018-11-25T07:11:34.366Z,13.50
2018-11-25T07:14:22.824Z,13.10
2018-11-25T07:16:51.878Z,12.83
2018-11-25T07:19:21.235Z,12.77
2018-11-25T07:21:50.544Z,11.90
2018-11-25T07:24:39.071Z,12.17
2018-11-25T07:27:08.414Z,12.10
2018-11-25T07:29:37.367Z,11.17
2018-11-25T07:32:06.593Z,11.53
2018-11-25T07:34:54.776Z,11.07
2018-11-25T07:38:03.015Z,11.50
2018-11-25T07:40:32.370Z,10.77
2018-11-25T07:43:20.947Z,11.80
2018-11-25T07:45:51.140Z,10.80
2018-11-25T07:48:20.135Z,11.60
2018-11-25T07:51:08.621Z,11.83
2018-11-25T07:53:38.045Z,10.97
2018-11-25T07:56:07.402Z,12.23
2018-11-25T07:58:36.780Z,11.80
2018-11-25T08:01:25.723Z,11.90
2018-11-25T08:06:43.109Z,60.77
2018-11-25T08:09:12.057Z,22.20
2018-11-25T08:11:40.939Z,14.67
2018-11-25T08:14:13.316Z,13.90
2018-11-25T08:16:42.634Z,12.90
2018-11-25T08:19:11.975Z,13.23
2018-11-25T08:22:00.466Z,13.23
2018-11-25T08:24:29.771Z,12.93
2018-11-25T08:26:59.095Z,13.27
2018-11-25T08:29:28.426Z,13.93
2018-11-25T08:32:17.229Z,14.70
2018-11-25T08:34:46.570Z,13.97
2018-11-25T08:37:15.796Z,12.17
2018-11-25T08:39:45.096Z,11.87
2018-11-25T08:42:33.821Z,10.63
2018-11-25T08:45:02.750Z,10.63
2018-11-25T08:47:34.011Z,10.97
2018-11-25T08:50:22.855Z,13.27
2018-11-25T08:52:52.817Z,14.10
2018-11-25T08:55:23.242Z,12.60
2018-11-25T08:58:19.306Z,10.93
2018-11-25T09:00:49.110Z,10.47
2018-11-25T09:03:40.395Z,10.23
2018-11-25T09:06:18.072Z,11.13
2018-11-25T09:11:54.201Z,10.37
2018-11-25T09:14:38.671Z,10.63
2018-11-25T09:17:20.046Z,10.73
2018-11-25T09:19:49.324Z,10.40
2018-11-25T09:22:18.265Z,10.50
2018-11-25T09:25:08.414Z,10.03
2018-11-25T09:27:37.400Z,10.47
2018-11-25T09:30:28.338Z,10.67
2018-11-25T09:32:57.721Z,10.60
2018-11-25T09:35:26.813Z,10.90
2018-11-25T09:37:55.817Z,10.53
2018-11-25T09:40:44.825Z,10.90
2018-11-25T09:43:13.343Z,11.97
2018-11-25T09:45:42.287Z,9.73
2018-11-25T09:48:50.014Z,10.17
2018-11-25T09:51:19.470Z,9.90
2018-11-25T09:56:39.337Z,10.00
2018-11-25T09:59:08.583Z,9.67
2018-11-25T10:01:37.452Z,9.13
2018-11-25T10:04:26.287Z,9.97
2018-11-25T10:06:55.247Z,10.10
2018-11-25T10:09:24.258Z,9.00
2018-11-25T10:12:12.297Z,9.83
2018-11-25T10:14:45.368Z,8.87
2018-11-25T10:17:13.413Z,8.50
2018-11-25T10:20:01.879Z,9.03
2018-11-25T10:22:31.293Z,8.80
2018-11-25T10:25:00.638Z,9.43
2018-11-25T10:27:29.611Z,8.67
2018-11-25T10:30:18.987Z,9.83
2018-11-25T10:32:49.425Z,11.13
2018-11-25T10:35:18.343Z,8.73
2018-11-25T10:37:50.198Z,9.10
2018-11-25T10:40:38.656Z,9.20
2018-11-25T10:43:07.925Z,8.70
2018-11-25T10:45:36.858Z,7.93
2018-11-25T10:48:25.383Z,8.40
2018-11-25T10:50:54.285Z,9.97
2018-11-25T10:53:23.616Z,9.60
2018-11-25T10:55:52.579Z,9.60
2018-11-25T10:58:41.031Z,8.93
2018-11-25T11:01:28.968Z,7.93
2018-11-25T11:03:58.895Z,7.60
2018-11-25T11:07:06.268Z,7.13
2018-11-25T11:09:53.665Z,8.90
2018-11-25T11:12:20.746Z,8.13
2018-11-25T11:15:11.108Z,21.50
2018-11-25T11:17:40.083Z,20.10
2018-11-25T11:20:10.615Z,12.23
2018-11-25T11:23:01.677Z,8.40
2018-11-25T11:25:32.268Z,9.17
2018-11-25T11:28:01.196Z,8.60
2018-11-25T11:30:50.001Z,8.47
2018-11-25T11:33:19.144Z,6.70
2018-11-25T11:35:48.005Z,6.07
2018-11-25T11:38:36.470Z,4.77
2018-11-25T11:41:25.030Z,5.23
2018-11-25T11:43:53.976Z,5.27
2018-11-25T11:52:29.375Z,5.70
2018-11-25T11:55:21.273Z,5.93
2018-11-25T11:57:54.972Z,5.83
2018-11-25T12:03:16.346Z,6.07
2018-11-25T12:08:36.349Z,6.87
2018-11-25T12:11:27.139Z,6.13
2018-11-25T12:13:56.134Z,5.43
2018-11-25T12:16:25.415Z,6.30
2018-11-25T12:19:14.258Z,4.67
2018-11-25T12:21:43.198Z,4.30
2018-11-25T12:24:12.069Z,5.77
2018-11-25T12:26:41.006Z,6.40
2018-11-25T12:32:17.789Z,6.53
2018-11-25T12:34:47.365Z,7.43
2018-11-25T12:37:36.498Z,7.50
2018-11-25T12:40:09.865Z,8.20
2018-11-25T12:42:59.365Z,7.77
2018-11-25T12:45:28.713Z,6.60
2018-11-25T12:51:24.062Z,7.50
2018-11-25T12:54:11.948Z,6.87
2018-11-25T12:56:44.050Z,7.27
2018-11-25T12:59:15.102Z,6.97
2018-11-25T13:01:44.094Z,7.57
2018-11-25T13:07:13.277Z,7.20
2018-11-25T13:12:17.767Z,6.57
2018-11-25T13:15:06.196Z,6.03
2018-11-25T13:17:35.241Z,6.67
2018-11-25T13:20:23.444Z,7.30
2018-11-25T13:22:52.338Z,7.20
2018-11-25T13:25:26.796Z,7.83
2018-11-25T13:27:56.121Z,7.13
2018-11-25T13:30:47.014Z,7.07
2018-11-25T13:33:36.605Z,7.30
2018-11-25T13:36:07.473Z,8.73
2018-11-25T13:38:59.371Z,8.77
2018-11-25T13:41:28.345Z,8.40
2018-11-25T13:43:57.689Z,8.43
2018-11-25T13:46:46.224Z,7.33
2018-11-25T13:49:34.476Z,7.17
2018-11-25T13:52:03.813Z,7.40
2018-11-25T13:55:10.870Z,6.93
2018-11-25T13:57:40.274Z,6.37
2018-11-25T14:00:38.317Z,6.93
2018-11-25T14:03:12.812Z,6.43
2018-11-25T14:08:52.762Z,6.33
2018-11-25T14:11:22.256Z,7.17
2018-11-25T14:13:51.144Z,6.73
2018-11-25T14:16:42.324Z,6.77
2018-11-25T14:19:11.734Z,6.63
2018-11-25T14:21:40.696Z,6.67
2018-11-25T14:24:29.845Z,8.10
2018-11-25T14:27:00.475Z,7.63
2018-11-25T14:29:30.170Z,8.73
2018-11-25T14:31:59.515Z,8.30
2018-11-25T14:34:48.080Z,8.50
2018-11-25T14:37:35.841Z,8.70
2018-11-25T14:40:43.560Z,9.00
2018-11-25T14:43:12.856Z,9.57
2018-11-25T14:45:41.751Z,8.47
2018-11-25T14:48:11.072Z,7.83
2018-11-25T14:51:02.594Z,8.67
2018-11-25T14:53:36.252Z,9.37
2018-11-25T14:56:00.871Z,9.07
2018-11-25T14:58:49.758Z,9.17
2018-11-25T15:01:19.099Z,8.47
2018-11-25T15:03:48.934Z,9.73
2018-11-25T15:06:37.438Z,9.20
2018-11-25T15:09:10.104Z,9.10
2018-11-25T15:14:46.659Z,8.73
2018-11-25T15:17:16.081Z,8.37
2018-11-25T15:19:45.481Z,8.93
2018-11-25T15:22:34.245Z,8.57
2018-11-25T15:25:03.277Z,9.53
2018-11-25T15:27:32.275Z,8.87
2018-11-25T15:30:01.531Z,8.90
2018-11-25T15:32:34.121Z,8.87
2018-11-25T15:35:03.344Z,8.77
2018-11-25T15:38:13.070Z,8.77
2018-11-25T15:40:42.357Z,9.50
2018-11-25T15:43:12.160Z,9.50
2018-11-25T15:46:01.018Z,9.47
2018-11-25T15:48:33.706Z,10.80
2018-11-25T15:51:03.025Z,10.00
2018-11-25T15:53:55.984Z,9.93
2018-11-25T15:56:25.467Z,10.37
2018-11-25T15:58:59.426Z,9.67
2018-11-25T16:01:32.357Z,9.50
2018-11-25T16:04:03.507Z,9.47
2018-11-25T16:06:34.658Z,9.17
2018-11-25T16:09:03.766Z,10.03
2018-11-25T16:11:51.907Z,9.73
2018-11-25T16:14:40.436Z,10.17
2018-11-25T16:17:09.496Z,10.47
2018-11-25T16:19:38.444Z,9.43
2018-11-25T16:22:27.264Z,9.47
2018-11-25T16:24:56.584Z,8.13
2018-11-25T16:27:26.148Z,10.47
2018-11-25T16:29:55.474Z,10.43
2018-11-25T16:32:44.569Z,10.70
2018-11-25T16:35:15.817Z,9.87
2018-11-25T16:37:45.062Z,9.53
2018-11-25T16:40:35.687Z,10.17
2018-11-25T16:43:23.879Z,10.60
2018-11-25T16:45:54.296Z,11.63
2018-11-25T16:48:42.581Z,10.37
2018-11-25T16:51:12.144Z,11.43
2018-11-25T16:53:58.972Z,12.83
2018-11-25T16:56:30.868Z,12.63
2018-11-25T16:58:59.821Z,12.17
2018-11-25T17:01:28.899Z,12.97
2018-11-25T17:03:58.439Z,13.17
2018-11-25T17:06:27.600Z,11.00
2018-11-25T17:08:57.575Z,11.77
2018-11-25T17:11:46.290Z,11.37
2018-11-25T17:14:15.481Z,11.53
2018-11-25T17:16:51.771Z,11.07
2018-11-25T17:19:21.108Z,11.90
2018-11-25T17:22:10.145Z,11.90
2018-11-25T17:24:41.971Z,12.13
2018-11-25T17:27:13.474Z,11.33
2018-11-25T17:29:42.775Z,13.17
2018-11-25T17:32:31.653Z,11.00
2018-11-25T17:35:01.083Z,10.97
2018-11-25T17:37:30.104Z,10.97
2018-11-25T17:39:59.020Z,12.30
2018-11-25T17:42:51.313Z,11.90
2018-11-25T17:45:37.858Z,11.43
2018-11-25T17:48:26.151Z,10.77
2018-11-25T17:51:15.974Z,13.60
2018-11-25T17:54:04.159Z,12.87
2018-11-25T17:56:33.614Z,12.10
2018-11-25T17:59:02.548Z,21.43
2018-11-25T18:04:58.788Z,25.97
2018-11-25T18:07:29.262Z,29.47
2018-11-25T18:09:58.236Z,35.27
2018-11-25T18:12:33.871Z,35.07
2018-11-25T18:15:02.884Z,32.17
2018-11-25T18:17:32.015Z,29.90
2018-11-25T18:23:14.513Z,24.23
2018-11-25T18:28:37.621Z,24.57
2018-11-25T18:31:28.314Z,23.10
2018-11-25T18:33:57.601Z,22.50
2018-11-25T18:36:46.091Z,21.93
2018-11-25T18:39:15.858Z,19.33
2018-11-25T18:42:04.477Z,19.87
2018-11-25T18:44:34.247Z,18.90
2018-11-25T18:47:06.249Z,17.00
2018-11-25T18:49:36.095Z,17.07
2018-11-25T18:52:27.462Z,16.47
2018-11-25T18:57:45.124Z,17.00
2018-11-25T19:00:55.638Z,15.97
2018-11-25T19:03:24.994Z,15.20
2018-11-25T19:05:54.328Z,15.40
2018-11-25T19:08:23.976Z,14.37
2018-11-25T19:11:15.728Z,13.00
2018-11-25T19:13:45.817Z,15.00
2018-11-25T19:16:21.670Z,15.17
2018-11-25T19:18:44.681Z,16.77
2018-11-25T19:21:33.611Z,17.83
2018-11-25T19:24:26.726Z,17.80
2018-11-25T19:26:54.287Z,20.57
2018-11-25T19:29:42.537Z,23.93
2018-11-25T19:32:11.693Z,22.43
2018-11-25T19:37:29.216Z,19.53
2018-11-25T19:39:58.503Z,19.23
2018-11-25T19:42:47.293Z,23.73
2018-11-25T19:45:36.400Z,20.83
2018-11-25T19:48:06.368Z,17.93
2018-11-25T19:50:57.040Z,18.17
2018-11-25T19:53:25.353Z,20.53
2018-11-25T19:55:55.016Z,21.77
2018-11-25T19:58:43.826Z,23.03
2018-11-25T20:01:13.166Z,22.23
2018-11-25T20:03:45.311Z,23.93
2018-11-25T20:06:36.678Z,22.00
2018-11-25T20:09:09.058Z,23.43
2018-11-25T20:11:38.339Z,22.30
2018-11-25T20:14:10.779Z,24.60
2018-11-25T20:17:18.373Z,23.60
2018-11-25T20:19:50.568Z,24.87
2018-11-25T20:22:38.891Z,25.70
2018-11-25T20:25:09.841Z,23.90
2018-11-25T20:27:58.333Z,23.67
2018-11-25T20:31:06.203Z,23.63
2018-11-25T20:33:54.923Z,23.33
2018-11-25T20:36:24.189Z,22.10
2018-11-25T20:39:15.095Z,19.60
2018-11-25T20:41:45.964Z,19.80
2018-11-25T20:44:15.738Z,19.13
2018-11-25T20:47:09.534Z,18.80
2018-11-25T20:49:39.248Z,17.97
2018-11-25T20:52:27.708Z,18.17
2018-11-25T20:54:57.066Z,17.43
2018-11-25T20:57:26.047Z,19.80
2018-11-25T20:59:55.073Z,18.67
2018-11-25T21:02:46.145Z,18.03
2018-11-25T21:05:18.287Z,16.23
2018-11-25T21:13:45.937Z,13.30
2018-11-25T21:16:37.115Z,12.93
2018-11-25T21:19:07.159Z,14.70
2018-11-25T21:21:36.544Z,13.83
2018-11-25T21:24:06.254Z,13.83
2018-11-25T21:26:55.296Z,13.87
2018-11-25T21:29:24.744Z,14.00
2018-11-25T21:31:54.300Z,13.77
2018-11-25T21:34:23.745Z,13.93
2018-11-25T21:37:12.248Z,14.23
2018-11-25T21:39:41.287Z,14.07
2018-11-25T21:42:11.102Z,14.07
2018-11-25T21:45:00.005Z,15.70
2018-11-25T21:47:29.487Z,15.30
2018-11-25T21:49:58.472Z,15.30
2018-11-25T21:52:29.952Z,14.73
2018-11-25T21:55:19.017Z,13.43
2018-11-25T21:57:48.090Z,14.17
2018-11-25T22:00:19.286Z,13.33
2018-11-25T22:03:11.097Z,15.87
2018-11-25T22:05:39.732Z,15.00
2018-11-25T22:08:14.382Z,16.87
2018-11-25T22:10:43.326Z,17.80
2018-11-25T22:13:12.672Z,17.77
2018-11-25T22:15:43.682Z,15.13
2018-11-25T22:18:10.898Z,15.70
2018-11-25T22:20:40.217Z,14.60
2018-11-25T22:23:09.642Z,13.77
2018-11-25T22:28:27.432Z,13.50
2018-11-25T22:31:16.472Z,12.93
2018-11-25T22:33:48.570Z,12.10
2018-11-25T22:36:18.084Z,12.97
2018-11-25T22:38:59.594Z,13.20
2018-11-25T22:41:41.051Z,12.83
2018-11-25T22:44:10.488Z,12.80
2018-11-25T22:46:39.478Z,16.13
2018-11-25T22:49:31.177Z,16.63
2018-11-25T22:52:07.451Z,15.37
2018-11-25T22:54:36.735Z,14.80
2018-11-25T22:57:25.687Z,15.20
2018-11-25T22:59:55.102Z,14.37
2018-11-25T23:02:24.495Z,12.40
2018-11-25T23:05:31.878Z,12.47
2018-11-25T23:10:49.190Z,11.47
2018-11-25T23:13:58.165Z,11.60
2018-11-25T23:16:27.154Z,10.80
2018-11-25T23:18:56.153Z,11.03
2018-11-25T23:21:44.691Z,11.93
2018-11-25T23:24:14.213Z,12.33
2018-11-25T23:26:43.561Z,12.77
2018-11-25T23:29:15.412Z,12.20
2018-11-25T23:32:04.041Z,14.27
2018-11-25T23:34:32.955Z,15.63
2018-11-25T23:37:02.294Z,14.87
2018-11-25T23:39:50.920Z,14.70
2018-11-25T23:42:20.159Z,13.30
2018-11-25T23:45:11.639Z,14.23
2018-11-25T23:50:48.236Z,13.20
2018-11-25T23:53:36.732Z,13.20
2018-11-25T23:56:06.056Z,13.13
2018-11-25T23:58:35.351Z,13.20
